LYBE/BEG METAR and TAF weather

Enter ICAO airport designator
Station Type Date Time Source
LYBE METAR 2019/04/20 18:00 UTC NOAA

LYBE 201800Z 00000KT CAVOK 16/M01 Q1026 NOSIG


Station Type Date Time Source
LYBE Decoded METAR 2019/04/20 18:00 UTC NOAA

Beograd / Surcin, Serbia and Montenegro (LYBE) 44-49N 020-17E 99M
Apr 20, 2019 - 02:00 PM EDT / 2019.04.20 1800 UTC
Wind: Calm:0
Visibility: greater than 7 mile(s):0
Temperature: 60 F (16 C)
Dew Point: 30 F (-1 C)
Relative Humidity: 31%
Pressure (altimeter): 30.30 in. Hg (1026 hPa)
ob: LYBE 201800Z 00000KT CAVOK 16/M01 Q1026 NOSIG
cycle: 18

Station Type Date Time Source
LYBE TAF 2019/04/20 18:21 UTC NOAA

TAF LYBE 201700Z 2018/2118 06006KT CAVOK TX21/2113Z TN07/2104Z

Example: see airport list